Weather observations for the past three days for
Greater Portsmouth Regional Airport
Imperial (Metric)
Date Time (edt) Wind (mph) Vis. (mi.) Weather Sky Cond. Temperature (ºF) Relative Humidity Wind Chill (°F) Heat Index (°F) Pressure Precipitation (in)
Air Dwpt 6 hour altimeter (in) sea level (mb) 1 hr 3 hr 6 hr
Max. Min.
03 10:55 SE 6 10.00 Fair CLR 87.8 78.8 75% 102 30.05 0.0
03 10:37 SE 5 10.00 Fair CLR 86 80.6 84% 102 30.05 0.0
03 10:15 SE 7 10.00 Fair CLR 82.4 78.8 89% 92 30.05 0.0
03 09:55 SE 5 10.00 Fair CLR 80.6 78.8 94% 88 30.05 0.0
03 09:35 Vrbl 3 10.00 Fair CLR 78.8 77 94% 83 30.06 0.0
03 09:15 SE 5 10.00 Fair CLR 75.2 75.2 100% 73 30.06 0.0
03 08:55 S 5 10.00 Fair CLR 75.2 75.2 100% 73 30.06 0.0
03 08:35 SE 2 8.00 Fair CLR 73.4 73.4 100% 30.07 0.0
03 08:15 SE 3 6.00 Fog/Mist FEW002 71.6 71.6 100% 30.07 0.0
03 07:55 S 2 2.50 Fog/Mist OVC002 71.6 71.6 73 70 100% 30.07 0.0
03 07:35 S 1 0.75 Fog/Mist OVC002 69.8 69.8 100% 30.06 0.0
03 07:15 S 1 0.15 Fog OVC002 69.8 69.8 100% 30.06 0.0
03 06:55 S 2 0.15 Fog OVC002 69.8 69.8 100% 30.05 0.0
03 06:35 S 1 0.15 Fog OVC002 71.6 71.6 100% 30.05 0.0
03 06:15 Calm 0.25 Fog OVC002 69.8 69.8 100% 30.04 0.0
03 05:55 SE 2 0.25 Fog OVC002 69.8 69.8 100% 30.04 0.0
03 05:35 S 2 0.50 Fog OVC002 69.8 69.8 100% 30.04 0.0
03 05:15 S 2 1.25 Fog/Mist BKN002 71.6 71.6 100% 30.04 0.0
03 04:55 S 2 2.50 Fog/Mist FEW002 69.8 69.8 100% 30.04 0.0
03 04:35 S 3 2.00 Fog/Mist BKN002 69.8 69.8 100% 30.04 0.0
03 04:15 S 1 1.75 Fog/Mist BKN002 71.6 71.6 100% 30.04 0.0
03 03:55 S 2 2.00 Fog/Mist CLR 71.6 71.6 100% 30.04 0.0
03 03:35 S 3 4.00 Fog/Mist CLR 71.6 71.6 100% 30.04 0.0
03 03:15 S 1 1.00 Fog/Mist CLR 71.6 71.6 100% 30.04 0.0
03 02:55 S 1 0.25 Fog VV002 73.4 73.4 100% 30.04 0.0
03 02:35 S 2 2.00 Fog/Mist CLR 71.6 71.6 100% 30.03 0.0
03 02:15 S 2 0.75 Fog/Mist VV005 73.4 73.4 100% 30.04 0.0
03 01:55 S 2 3.00 Fog/Mist CLR 73.4 73.4 85.3 72.1 100% 30.03 0.0
03 01:35 S 3 4.00 Fog/Mist CLR 71.6 71.6 100% 30.03 0.0
03 01:15 S 3 5.00 Fog/Mist CLR 73.4 73.4 100% 30.03 0.0
03 00:55 S 2 6.00 Fog/Mist CLR 73.4 73.4 100% 30.02 0.0
03 00:35 S 2 3.00 Fog/Mist CLR 73.4 73.4 100% 30.02 0.0
03 00:15 S 3 4.00 Fog/Mist CLR 73.4 73.4 100% 30.02 0.0
02 23:55 S 3 8.00 Fair CLR 73.4 73.4 100% 30.03 0.0
02 23:35 S 2 10.00 Fair CLR 75.2 75.2 100% 73 30.03 0.0
02 23:15 S 1 10.00 Fair CLR 75.2 75.2 100% 73 30.03 0.0
02 22:55 Calm 10.00 Fair CLR 75.2 75.2 100% 73 30.03 0.0
02 22:35 S 1 10.00 Fair CLR 77 77 100% 78 30.04 0.0
02 22:15 SE 1 10.00 Fair CLR 77 77 100% 78 30.03 0.0
02 21:55 Calm 10.00 Fair CLR 77 77 100% 78 30.03 0.0
02 21:35 N 2 10.00 Fair CLR 78.8 77 94% 83 30.03 0.0
02 21:16 SE 2 10.00 Fair CLR 78.8 78.8 100% 83 30.02 0.0
02 20:55 SE 2 10.00 Fair CLR 80.6 77 89% 87 30.02 0.0
02 20:35 S 1 10.00 Fair CLR 80.6 77 89% 87 30.01 0.0
02 20:16 SW 1 10.00 Fair CLR 82.4 77 84% 91 30.01 0.0
02 19:55 W 2 10.00 Fair CLR 84.2 77 97.5 85.3 79% 94 30.01 0.0
02 19:35 SW 2 10.00 Fair CLR 89.6 75.2 63% 100 30.01 0.0
02 19:15 SW 2 10.00 Fair CLR 91.4 71.6 52% 99 30.01 0.0
02 18:55 Vrbl 2 10.00 Fair CLR 93.2 71.6 50% 101 30.01 0.0
02 18:35 Vrbl 3 10.00 Fair CLR 93.2 71.6 50% 101 30.01 0.0
02 18:15 Vrbl 5 10.00 Fair CLR 95 71.6 47% 103 30.01 0.0
02 17:55 Vrbl 3 10.00 Fair CLR 95 71.6 47% 103 30.02 0.0
02 17:35 W 8 10.00 Fair CLR 95 71.6 47% 103 30.02 0.0
02 17:15 Vrbl 3 10.00 Fair CLR 95 71.6 47% 103 30.02 0.0
02 16:55 W 7 10.00 Fair CLR 95 69.8 44% 101 30.02 0.0
02 16:35 W 8 10.00 Fair CLR 96.8 69.8 42% 103 30.03 0.0
02 16:15 Vrbl 6 10.00 Fair CLR 96.8 69.8 42% 103 30.03 0.0
02 15:55 Vrbl 3 10.00 Fair CLR 95 69.8 44% 101 30.04 0.0
02 15:35 S 9 10.00 A Few Clouds FEW070 96.8 69.8 42% 103 30.04 0.0
02 15:15 Vrbl 5 10.00 A Few Clouds FEW055 95 68 41% 100 30.05 0.0
02 14:55 Vrbl 5 10.00 Partly Cloudy SCT055 SCT070 95 69.8 44% 101 30.06 0.0
02 14:35 Vrbl 6 10.00 Partly Cloudy FEW055 SCT085 95 71.6 47% 103 30.06 0.0
02 14:15 Vrbl 7 10.00 A Few Clouds FEW050 FEW085 95 71.6 47% 103 30.06 0.0
02 13:55 Vrbl 5 10.00 A Few Clouds FEW050 FEW060 95 73.4 95.2 68.5 50% 105 30.07 0.0
02 13:35 SW 5 10.00 Mostly Cloudy SCT050 BKN060 95 73.4 50% 105 30.07 0.0
02 13:15 Vrbl 5 10.00 Partly Cloudy SCT050 93.2 73.4 53% 103 30.08 0.0
02 12:55 W 5 10.00 Fair CLR 93.2 71.6 50% 101 30.09 0.0
02 12:36 W 6 10.00 Fair CLR 93.2 73.4 53% 103 30.1 0.0
02 12:15 SE 3 10.00 Fair CLR 91.4 75.2 59% 103 30.1 0.0
02 11:55 S 5 10.00 Fair CLR 91.4 77 63% 105 30.11 0.0
02 11:36 SE 5 10.00 Fair CLR 89.6 78.8 71% 105 30.11 0.0
02 11:11 SE 6 10.00 Fair CLR 87.8 78.8 75% 102 30.11 0.0
02 10:55 Vrbl 5 10.00 Fair CLR 86 78.8 79% 99 30.11 0.0
02 10:36 SE 6 10.00 Fair CLR 82.4 78.8 89% 92 30.11 0.0
02 10:15 SE 7 10.00 Fair CLR 80.6 77 89% 87 30.11 0.0
02 09:55 SE 7 10.00 Fair CLR 78.8 77 94% 83 30.1 0.0
02 09:36 SE 5 10.00 Fair CLR 77 75.2 94% 78 30.1 0.0
02 09:14 SE 5 10.00 Fair CLR 75.2 75.2 100% 73 30.11 0.0
02 08:55 SE 6 10.00 A Few Clouds FEW001 71.6 71.6 100% 30.1 0.0
02 08:37 SE 5 6.00 Fog/Mist BKN001 71.6 71.6 100% 30.1 0.0
02 08:15 S 6 3.00 Fog/Mist BKN001 69.8 69.8 100% 30.1 0.0
02 07:55 S 5 0.75 Fog/Mist OVC001 68 68 71.6 67.6 100% 30.09 0.0
02 07:35 S 2 0.15 Fog OVC001 68 68 100% 30.09 0.0
02 07:15 S 1 0.15 Fog OVC001 68 68 100% 30.09 0.0
02 06:55 S 2 0.15 Fog VV000 68 68 100% 30.08 0.0
02 06:35 SE 3 0.15 Fog VV000 68 68 100% 30.08 0.0
02 06:17 SE 2 0.25 Fog VV002 68 68 100% 30.08 0.0
02 05:55 S 2 6.00 Fog/Mist CLR 68 68 100% 30.08 0.0
02 05:35 SW 1 0.50 Fog VV005 68 68 100% 30.08 0.0
02 05:15 S 1 1.25 Fog/Mist SCT001 69.8 69.8 100% 30.08 0.0
02 04:55 S 2 0.15 Fog VV000 69.8 69.8 100% 30.08 0.0
02 04:35 S 2 2.00 Fog/Mist CLR 69.8 69.8 100% 30.08 0.0
02 04:15 SE 2 7.00 Fog/Mist CLR 69.8 69.8 100% 30.07 0.0
02 03:55 Vrbl 1 5.00 Fog/Mist CLR 69.8 69.8 100% 30.06 0.0
02 03:35 Calm 5.00 Fog/Mist CLR 69.8 69.8 100% 30.06 0.0
02 03:15 S 1 1.25 Fog/Mist CLR 71.6 71.6 100% 30.06 0.0
02 02:55 S 3 4.00 Fog/Mist CLR 71.6 71.6 100% 30.05 0.0
02 02:35 S 3 6.00 Fog/Mist CLR 71.6 71.6 100% 30.06 0.0
02 02:15 S 2 5.00 Fog/Mist CLR 71.6 71.6 100% 30.06 0.0
02 01:55 S 3 7.00 Fog/Mist CLR 69.8 69.8 85.3 70.7 100% 30.06 0.0
02 01:35 Calm 6.00 Fog/Mist CLR 71.6 71.6 100% 30.06 0.0
02 01:15 S 2 6.00 Fog/Mist CLR 71.6 71.6 100% 30.05 0.0
02 00:55 S 3 9.00 Fair CLR 71.6 71.6 100% 30.05 0.0
02 00:35 S 3 10.00 Fair CLR 71.6 71.6 100% 30.05 0.0
02 00:15 S 1 10.00 Fair CLR 73.4 73.4 100% 30.05 0.0
01 23:55 S 1 10.00 Fair CLR 73.4 73.4 100% 30.05 0.0
01 23:35 S 1 10.00 Fair CLR 73.4 73.4 100% 30.05 0.0
01 23:15 S 2 10.00 Fair CLR 73.4 73.4 100% 30.05 0.0
01 22:55 S 1 10.00 Fair CLR 73.4 73.4 100% 30.05 0.0
01 22:33 S 1 10.00 Fair CLR 75.2 75.2 100% 73 30.05 0.0
01 22:15 S 1 10.00 Fair CLR 75.2 75.2 100% 73 30.05 0.0
01 21:55 E 1 10.00 Fair CLR 77 75.2 94% 78 30.05 0.0
01 21:35 Calm 10.00 Fair CLR 77 75.2 94% 78 30.05 0.0
01 21:15 S 1 10.00 Fair CLR 78.8 75.2 89% 82 30.05 0.0
01 20:55 Calm 10.00 Fair CLR 78.8 75.2 89% 82 30.04 0.0
01 20:36 Calm 10.00 Fair CLR 80.6 73.4 79% 85 30.04 0.0
01 20:15 W 2 10.00 Fair CLR 82.4 71.6 70% 87 30.04 0.0
01 19:55 W 2 10.00 Fair CLR 84.2 71.6 95 85.1 66% 90 30.04 0.0
01 19:35 W 2 10.00 Fair CLR 87.8 71.6 59% 94 30.04 0.0
01 19:15 NW 2 10.00 Fair CLR 91.4 69.8 49% 97 30.04 0.0
01 18:55 Vrbl 5 10.00 Fair CLR 91.4 68 46% 96 30.04 0.0
01 18:35 W 7 10.00 Fair CLR 93.2 68 44% 98 30.04 0.0
01 18:15 Vrbl 5 10.00 Fair CLR 93.2 69.8 47% 99 30.04 0.0
01 17:55 S 6 10.00 Fair CLR 93.2 68 44% 98 30.04 0.0
01 17:36 Vrbl 2 10.00 Fair CLR 93.2 68 44% 98 30.04 0.0
01 17:15 Vrbl 5 10.00 Fair CLR 93.2 68 44% 98 30.04 0.0
01 16:55 Vrbl 5 10.00 A Few Clouds FEW060 93.2 69.8 47% 99 30.05 0.0
01 16:35 S 6 10.00 Partly Cloudy SCT060 93.2 68 44% 98 30.05 0.0
01 16:15 S 7 10.00 A Few Clouds FEW060 93.2 68 44% 98 30.05 0.0
01 15:55 Vrbl 6 10.00 A Few Clouds FEW060 93.2 69.8 47% 99 30.06 0.0
01 15:35 S 7 10.00 Partly Cloudy SCT060 93.2 69.8 47% 99 30.06 0.0
01 15:15 NW 6 10.00 A Few Clouds FEW060 93.2 68 44% 98 30.07 0.0
01 14:55 Vrbl 7 10.00 A Few Clouds FEW050 93.2 69.8 47% 99 30.07 0.0
01 14:35 Vrbl 6 10.00 A Few Clouds FEW050 93.2 69.8 47% 99 30.08 0.0
01 14:15 Vrbl 3 10.00 Fair CLR 91.4 69.8 49% 97 30.08 0.0
01 13:55 W 7 10.00 Fair CLR 91.4 69.8 92.5 70 49% 97 30.09 0.0
01 13:35 NW 8 10.00 Partly Cloudy SCT049 91.4 69.8 49% 97 30.1 0.0
01 13:15 Vrbl 6 10.00 Partly Cloudy SCT049 91.4 69.8 49% 97 30.1 0.0
01 12:55 NW 9 10.00 A Few Clouds FEW047 91.4 71.6 52% 99 30.11 0.0
01 12:35 Vrbl 5 10.00 A Few Clouds FEW046 91.4 73.4 56% 100 30.11 0.0
01 12:15 Vrbl 3 10.00 Fair CLR 89.6 73.4 59% 98 30.11 0.0
01 11:55 W 8 G 18 10.00 Fair CLR 89.6 71.6 55% 96 30.11 0.0
01 11:35 NW 9 10.00 Fair CLR 87.8 73.4 62% 96 30.1 0.0
01 11:15 Vrbl 5 10.00 Fair CLR 87.8 75.2 66% 98 30.1 0.0
01 10:55 Vrbl 1 10.00 Fair CLR 86 75.2 70% 95 30.11 0.0
01 10:35 Vrbl 3 10.00 Light Rain CLR 86 78.8 79% 99 30.11 0.0
01 10:15 SE 6 10.00 Fair CLR 82.4 78.8 89% 92 30.11 0.0
01 09:55 SE 5 10.00 Fair CLR 80.6 77 89% 87 30.11 0.0
01 09:35 S 6 10.00 Fair CLR 77 77 100% 78 30.11 0.0
01 09:10 SE 5 10.00 Fair CLR 75.2 75.2 100% 73 30.11 0.0
01 08:55 SE 6 7.00 A Few Clouds FEW001 73.4 73.4 100% 30.11 0.0
01 08:35 S 5 2.50 Fog/Mist BKN001 71.6 71.6 100% 30.12 0.0
01 08:15 SE 5 0.25 Fog OVC001 71.6 71.6 100% 30.12 0.0
01 07:55 S 5 0.15 Fog OVC001 69.8 69.8 72.5 69.1 100% 30.11 0.0
01 07:35 S 2 0.15 Fog OVC001 69.8 69.8 100% 30.11 0.0
01 07:15 S 3 0.15 Fog OVC001 69.8 69.8 100% 30.1 0.0
01 06:55 S 2 0.00 Mostly Cloudy BKN001 0 0 0% 30.09 0.0
01 06:35 S 2 0.15 Fog OVC001 69.8 69.8 100% 30.09 0.0
01 06:15 S 3 0.15 Fog OVC001 69.8 69.8 100% 30.08 0.0
01 05:55 S 3 0.15 Overcast OVC001 0 0 0% 30.08 0.0
01 05:35 S 2 0.15 Fog OVC001 69.8 69.8 100% 30.08 0.0
01 05:15 S 2 0.15 Fog BKN001 69.8 69.8 100% 30.07 0.0
01 04:55 S 2 0.15 Fog VV000 69.8 69.8 100% 30.07 0.0
01 04:35 S 1 0.15 Fog BKN001 71.6 71.6 100% 30.07 0.0
01 04:15 SE 1 0.15 Fog BKN001 71.6 71.6 100% 30.07 0.0
01 03:55 E 1 1.00 Fog/Mist CLR 71.6 71.6 100% 30.07 0.0
01 03:35 S 1 2.50 Fog/Mist CLR 71.6 71.6 100% 30.06 0.0
01 03:15 Calm 1.00 Fog/Mist SCT002 71.6 71.6 100% 30.06 0.0
01 02:55 SW 1 0.75 Fog/Mist BKN002 71.6 71.6 100% 30.06 0.0
01 02:36 SW 1 0.75 Fog/Mist VV005 71.6 71.6 100% 30.06 0.0
01 02:15 S 2 1.50 Fog/Mist SCT001 71.6 71.6 100% 30.06 0.0
01 01:54 S 7 2.00 Fog/Mist SCT001 71.6 71.6 82.8 71.8 100% 30.05 0.0
01 01:37 S 5 0.15 Fog BKN001 71.6 71.6 100% 30.06 0.0
01 01:15 S 5 2.50 Fog/Mist SCT001 71.6 71.6 100% 30.07 0.0
01 00:55 S 5 1.50 Fog/Mist BKN001 71.6 71.6 100% 30.07 0.0
01 00:35 S 3 1.75 Fog/Mist BKN001 71.6 71.6 100% 30.08 0.0
01 00:15 S 1 3.00 Fog/Mist FEW001 73.4 73.4 100% 30.08 0.0
31 23:55 S 2 4.00 Fog/Mist CLR 73.4 73.4 100% 30.08 0.0
31 23:35 S 2 7.00 Fog/Mist CLR 73.4 73.4 100% 30.08 0.0
31 23:15 S 2 7.00 A Few Clouds FEW046 73.4 73.4 100% 30.08 0.0
31 22:55 S 1 10.00 Partly Cloudy SCT046 75.2 75.2 100% 73 30.09 0.0
31 22:35 Vrbl 2 10.00 Fair CLR 75.2 75.2 100% 73 30.09 0.0
31 22:15 S 3 10.00 A Few Clouds FEW050 75.2 75.2 100% 73 30.08 0.0
31 21:55 W 1 10.00 A Few Clouds FEW050 77 77 100% 78 30.09 0.0
31 21:35 Calm 10.00 Fair CLR 78.8 77 94% 83 30.08 0.0
31 21:15 S 1 10.00 Fair CLR 78.8 77 94% 83 30.07 0.0
31 20:55 NW 1 10.00 Fair CLR 80.6 77 89% 87 30.06 0.0
31 20:35 W 1 10.00 Fair CLR 80.6 78.8 94% 88 30.06 0.0
31 20:15 Vrbl 2 10.00 Fair CLR 82.4 78.8 89% 92 30.05 0.0
31 19:35 S 3 10.00 Fair CLR 82.4 78.8 89% 92 30.05 0.0
31 19:15 S 2 10.00 Fair CLR 86 75.2 70% 95 30.04 0.0
31 18:55 SW 1 10.00 Fair CLR 87.8 73.4 62% 96 30.05 0.0
31 18:35 Vrbl 2 10.00 Fair CLR 89.6 73.4 59% 98 30.05 0.0
31 18:13 Vrbl 1 10.00 Fair CLR 89.6 73.4 59% 98 30.05 0.0
31 17:55 Vrbl 3 10.00 Fair CLR 89.6 71.6 55% 96 30.06 0.0
31 17:35 W 3 10.00 Fair CLR 89.6 69.8 52% 95 30.06 0.0
31 17:15 Vrbl 2 10.00 Fair CLR 91.4 69.8 49% 97 30.07 0.0
31 16:55 W 7 10.00 A Few Clouds FEW060 91.4 68 46% 96 30.07 0.0
31 16:35 Vrbl 5 10.00 A Few Clouds FEW060 93.2 69.8 47% 99 30.07 0.0
31 16:11 Vrbl 6 10.00 A Few Clouds FEW060 FEW070 FEW090 91.4 68 46% 96 30.08 0.0
31 15:55 Vrbl 6 10.00 A Few Clouds FEW070 FEW090 91.4 69.8 49% 97 30.08 0.0
31 15:34 Vrbl 2 10.00 Partly Cloudy FEW049 SCT070 SCT120 87.8 77 70% 100 30.09 0.0
31 15:15 Vrbl 6 10.00 Partly Cloudy SCT049 SCT060 SCT120 91.4 71.6 52% 99 30.1 0.0
31 14:55 Vrbl 6 10.00 A Few Clouds FEW049 FEW070 91.4 69.8 49% 97 30.1 0.0
31 14:36 W 10 G 16 10.00 Partly Cloudy FEW049 SCT070 SCT090 91.4 71.6 52% 99 30.1 0.0
31 14:14 Vrbl 6 10.00 Fair CLR 93.2 71.6 50% 101 30.11 0.0
31 13:56 W 8 10.00 A Few Clouds FEW048 FEW050 91.4 71.6 52% 99 30.11 0.0
31 13:34 Vrbl 6 10.00 Fair CLR 91.4 71.6 52% 99 30.12 0.0
31 13:16 W 8 10.00 Fair CLR 89.6 71.6 55% 96 30.12 0.0
31 12:56 NW 7 10.00 Fair CLR 89.6 71.6 55% 96 30.12 0.0
31 12:35 Vrbl 2 10.00 Fair CLR 87.8 78.8 75% 102 30.13 0.0
31 12:14 SE 7 10.00 Fair CLR 86 77 75% 97 30.13 0.0
31 11:54 SE 7 10.00 Fair CLR 84.2 77 79% 94 30.13 0.0
31 11:35 SE 7 10.00 Fair CLR 82.4 77 84% 91 30.13 0.0
31 11:15 SE 7 10.00 Fair CLR 80.6 77 89% 87 30.13 0.0
Date Time (edt) Wind (mph) Vis. (mi.) Weather Sky Cond. Air Dwpt Max. Min. Relative Humidity Wind Chill (°F) Heat Index (°F) altimeter (in) sea level (mb) 1 hr 3 hr 6 hr
6 hour
Temperature (ºF) Pressure Precipitation (in)